createdAt,value
2023-01-21T00:00:25.656Z,1.01
2023-01-21T00:02:28.697Z,1.01
2023-01-21T00:04:34.397Z,1.01
2023-01-21T00:06:37.410Z,1.00
2023-01-21T00:08:40.351Z,1.00
2023-01-21T00:10:44.989Z,1.00
2023-01-21T00:12:48.031Z,1.01
2023-01-21T00:14:52.310Z,1.00
2023-01-21T00:16:55.318Z,0.98
2023-01-21T00:18:58.411Z,0.97
2023-01-21T00:21:01.675Z,0.97
2023-01-21T00:23:04.888Z,0.97
2023-01-21T00:25:08.918Z,0.98
2023-01-21T00:27:13.328Z,0.96
2023-01-21T00:29:16.474Z,0.95
2023-01-21T00:31:19.544Z,0.95
2023-01-21T00:33:22.585Z,0.93
2023-01-21T00:35:25.590Z,0.95
2023-01-21T00:37:28.611Z,0.95
2023-01-21T00:39:31.629Z,0.93
2023-01-21T00:41:34.745Z,0.93
2023-01-21T00:43:39.462Z,0.92
2023-01-21T00:45:42.585Z,0.94
2023-01-21T00:47:45.790Z,0.95
2023-01-21T00:49:48.772Z,0.96
2023-01-21T00:51:51.814Z,0.95
2023-01-21T00:53:54.748Z,0.93
2023-01-21T00:56:00.554Z,0.92
2023-01-21T00:58:03.707Z,0.87
2023-01-21T01:00:13.086Z,0.83
2023-01-21T01:02:16.130Z,0.81
2023-01-21T01:04:19.988Z,0.81
2023-01-21T01:06:24.338Z,0.78
2023-01-21T01:08:27.394Z,0.70
2023-01-21T01:10:30.416Z,0.69
2023-01-21T01:12:33.348Z,0.67
2023-01-21T01:14:36.367Z,0.63
2023-01-21T01:16:40.693Z,0.60
2023-01-21T01:18:44.413Z,0.59
2023-01-21T01:20:47.333Z,0.58
2023-01-21T01:22:50.354Z,0.59
2023-01-21T01:24:53.467Z,0.57
2023-01-21T01:26:58.223Z,0.58
2023-01-21T01:29:01.731Z,0.58
2023-01-21T01:31:05.787Z,0.56
2023-01-21T01:33:10.404Z,0.54
2023-01-21T01:35:13.414Z,0.54
2023-01-21T01:37:16.319Z,0.52
2023-01-21T01:39:19.245Z,0.51
2023-01-21T01:41:27.517Z,0.48
2023-01-21T01:43:55.757Z,0.44
2023-01-21T01:45:58.767Z,0.42
2023-01-21T01:48:03.579Z,0.45
2023-01-21T01:50:11.355Z,0.43
2023-01-21T01:52:15.681Z,0.40
2023-01-21T01:54:21.600Z,0.36
2023-01-21T01:56:24.586Z,0.37
2023-01-21T01:58:28.309Z,0.37
2023-01-21T02:00:31.424Z,0.36
2023-01-21T02:02:35.559Z,0.35
2023-01-21T02:04:40.304Z,0.30
2023-01-21T02:06:45.167Z,0.29
2023-01-21T02:08:48.776Z,0.28
2023-01-21T02:10:51.771Z,0.26
2023-01-21T02:12:54.973Z,0.22
2023-01-21T02:14:58.015Z,0.20
2023-01-21T02:17:08.807Z,0.20
2023-01-21T02:19:42.985Z,0.18
2023-01-21T02:21:55.759Z,0.13
2023-01-21T02:24:15.567Z,0.05
2023-01-21T02:26:48.268Z,0.01
2023-01-21T02:29:14.348Z,0.00
2023-01-21T02:31:38.171Z,-0.02
2023-01-21T02:33:55.348Z,-0.03
2023-01-21T02:36:08.541Z,-0.06
2023-01-21T02:38:16.286Z,-0.08
2023-01-21T02:40:25.070Z,-0.07
2023-01-21T02:42:34.007Z,-0.06
2023-01-21T02:44:40.455Z,-0.08
2023-01-21T02:46:46.540Z,-0.09
2023-01-21T02:48:55.552Z,-0.08
2023-01-21T02:50:58.692Z,-0.09
2023-01-21T02:53:03.901Z,-0.10
2023-01-21T02:55:10.667Z,-0.10
2023-01-21T02:57:16.985Z,-0.14
2023-01-21T02:59:19.893Z,-0.14
2023-01-21T03:01:28.757Z,-0.15
2023-01-21T03:03:56.870Z,-0.15
2023-01-21T03:06:41.279Z,-0.15
2023-01-21T03:08:49.189Z,-0.17
2023-01-21T03:10:59.918Z,-0.17
2023-01-21T03:13:05.840Z,-0.19
2023-01-21T03:15:29.294Z,-0.22
2023-01-21T03:17:36.691Z,-0.24
2023-01-21T03:19:51.170Z,-0.26
2023-01-21T03:21:55.070Z,-0.28
2023-01-21T03:23:59.535Z,-0.29
2023-01-21T03:26:02.810Z,-0.30
2023-01-21T03:28:08.588Z,-0.29
2023-01-21T03:30:14.750Z,-0.29
2023-01-21T03:32:19.709Z,-0.32
2023-01-21T03:34:24.936Z,-0.32
2023-01-21T03:36:34.599Z,-0.31
2023-01-21T03:38:40.814Z,-0.31
2023-01-21T03:40:47.382Z,-0.32
2023-01-21T03:42:52.664Z,-0.33
2023-01-21T03:44:55.996Z,-0.35
2023-01-21T03:47:03.666Z,-0.38
2023-01-21T03:49:08.975Z,-0.35
2023-01-21T03:51:16.518Z,-0.38
2023-01-21T03:53:20.874Z,-0.37
2023-01-21T03:55:23.903Z,-0.37
2023-01-21T03:57:26.819Z,-0.33
2023-01-21T03:59:29.755Z,-0.33
2023-01-21T04:01:32.747Z,-0.31
2023-01-21T04:03:35.739Z,-0.32
2023-01-21T04:05:38.724Z,-0.35
2023-01-21T04:07:41.869Z,-0.39
2023-01-21T04:09:46.335Z,-0.41
2023-01-21T04:11:49.441Z,-0.47
2023-01-21T04:13:52.467Z,-0.50
2023-01-21T04:15:55.362Z,-0.52
2023-01-21T04:17:58.306Z,-0.54
2023-01-21T04:20:01.193Z,-0.56
2023-01-21T04:22:04.200Z,-0.55
2023-01-21T04:24:08.054Z,-0.53
2023-01-21T04:26:12.463Z,-0.51
2023-01-21T04:28:15.537Z,-0.54
2023-01-21T04:30:19.205Z,-0.55
2023-01-21T04:32:22.297Z,-0.53
2023-01-21T04:34:25.301Z,-0.51
2023-01-21T04:36:28.329Z,-0.47
2023-01-21T04:38:31.236Z,-0.48
2023-01-21T04:40:34.236Z,-0.45
2023-01-21T04:42:38.640Z,-0.38
2023-01-21T04:44:41.627Z,-0.32
2023-01-21T04:46:44.721Z,-0.26
2023-01-21T04:48:47.757Z,-0.23
2023-01-21T04:50:50.735Z,-0.25
2023-01-21T04:52:53.841Z,-0.26
2023-01-21T04:54:56.847Z,-0.27
2023-01-21T04:57:00.144Z,-0.31
2023-01-21T04:59:04.484Z,-0.33
2023-01-21T05:01:07.816Z,-0.41
2023-01-21T05:03:10.828Z,-0.61
2023-01-21T05:05:13.767Z,-0.76
2023-01-21T05:07:16.766Z,-0.84
2023-01-21T05:09:19.791Z,-0.93
2023-01-21T05:11:22.716Z,-0.98
2023-01-21T05:13:25.763Z,-1.09
2023-01-21T05:15:30.299Z,-1.18
2023-01-21T05:17:33.234Z,-1.24
2023-01-21T05:19:36.163Z,-1.26
2023-01-21T05:21:39.212Z,-1.24
2023-01-21T05:23:42.184Z,-1.31
2023-01-21T05:25:45.197Z,-1.36
2023-01-21T05:27:53.125Z,-1.39
2023-01-21T05:29:57.064Z,-1.42
2023-01-21T05:32:01.488Z,-1.43
2023-01-21T05:34:04.881Z,-1.43
2023-01-21T05:36:08.692Z,-1.38
2023-01-21T05:38:11.706Z,-1.34
2023-01-21T05:40:16.280Z,-1.34
2023-01-21T05:42:19.477Z,-1.34
2023-01-21T05:44:22.403Z,-1.27
2023-01-21T05:46:25.460Z,-1.22
2023-01-21T05:48:30.226Z,-1.18
2023-01-21T05:50:33.633Z,-1.12
2023-01-21T05:52:36.703Z,-1.06
2023-01-21T05:54:49.244Z,-1.00
2023-01-21T05:56:59.053Z,-0.94
2023-01-21T05:59:02.116Z,-0.96
2023-01-21T06:01:05.359Z,-0.96
2023-01-21T06:03:08.390Z,-0.97
2023-01-21T06:05:12.735Z,-0.96
2023-01-21T06:07:15.816Z,-0.91
2023-01-21T06:09:18.767Z,-0.89
2023-01-21T06:11:21.665Z,-0.84
2023-01-21T06:13:24.919Z,-0.80
2023-01-21T06:15:28.012Z,-0.82
2023-01-21T06:17:31.038Z,-0.83
2023-01-21T06:19:34.080Z,-0.80
2023-01-21T06:21:38.599Z,-0.78
2023-01-21T06:23:41.837Z,-0.80
2023-01-21T06:25:44.863Z,-0.80
2023-01-21T06:27:47.872Z,-0.76
2023-01-21T06:29:50.897Z,-0.74
2023-01-21T06:31:53.965Z,-0.74
2023-01-21T06:33:57.107Z,-0.71
2023-01-21T06:36:00.097Z,-0.69
2023-01-21T06:38:04.570Z,-0.67
2023-01-21T06:40:09.142Z,-0.64
2023-01-21T06:42:12.107Z,-0.62
2023-01-21T06:44:15.040Z,-0.54
2023-01-21T06:46:18.102Z,-0.51
2023-01-21T06:48:21.103Z,-0.49
2023-01-21T06:50:24.005Z,-0.43
2023-01-21T06:52:26.969Z,-0.42
2023-01-21T06:54:31.437Z,-0.39
2023-01-21T06:56:34.362Z,-0.38
2023-01-21T06:58:37.346Z,-0.38
2023-01-21T07:00:40.419Z,-0.38
2023-01-21T07:02:43.348Z,-0.33
2023-01-21T07:04:46.379Z,-0.33
2023-01-21T07:06:50.073Z,-0.28
2023-01-21T07:08:52.979Z,-0.24
2023-01-21T07:10:57.513Z,-0.19
2023-01-21T07:13:00.591Z,-0.15
2023-01-21T07:15:03.688Z,-0.12
2023-01-21T07:17:06.830Z,-0.10
2023-01-21T07:19:10.038Z,-0.07
2023-01-21T07:21:13.008Z,-0.04
2023-01-21T07:23:16.068Z,-0.01
2023-01-21T07:25:19.286Z,0.02
2023-01-21T07:27:23.794Z,0.08
2023-01-21T07:29:27.979Z,0.12
2023-01-21T07:31:31.140Z,0.16
2023-01-21T07:33:34.133Z,0.18
2023-01-21T07:35:37.171Z,0.22
2023-01-21T07:37:40.466Z,0.27
2023-01-21T07:39:43.470Z,0.31
2023-01-21T07:41:46.690Z,0.31
2023-01-21T07:43:51.324Z,0.33
2023-01-21T07:45:54.682Z,0.38
2023-01-21T07:47:57.760Z,0.39
2023-01-21T07:50:04.825Z,0.41
2023-01-21T07:52:07.833Z,0.40
2023-01-21T07:54:11.537Z,0.42
2023-01-21T07:56:14.956Z,0.45
2023-01-21T07:58:17.988Z,0.48
2023-01-21T08:00:23.670Z,0.53
2023-01-21T08:02:26.862Z,0.59
2023-01-21T08:04:29.949Z,0.65
2023-01-21T08:06:32.968Z,0.68
2023-01-21T08:08:36.390Z,0.72
2023-01-21T08:10:39.450Z,0.75
2023-01-21T08:12:42.848Z,0.78
2023-01-21T08:14:45.867Z,0.78
2023-01-21T08:16:50.266Z,0.80
2023-01-21T08:18:53.312Z,0.82
2023-01-21T08:20:57.020Z,0.83
2023-01-21T08:23:01.290Z,0.87
2023-01-21T08:25:06.146Z,0.90
2023-01-21T08:27:09.397Z,0.93
2023-01-21T08:29:12.509Z,0.95
2023-01-21T08:31:16.039Z,0.97
2023-01-21T08:33:20.632Z,0.98
2023-01-21T08:35:24.552Z,1.03
2023-01-21T08:37:27.621Z,1.06
2023-01-21T08:39:30.706Z,1.09
2023-01-21T08:41:33.793Z,1.09
2023-01-21T08:43:36.873Z,1.14
2023-01-21T08:45:40.029Z,1.17
2023-01-21T08:47:44.317Z,1.19
2023-01-21T08:49:48.683Z,1.23
2023-01-21T08:51:51.801Z,1.26
2023-01-21T08:53:54.933Z,1.29
2023-01-21T08:56:00.056Z,1.33
2023-01-21T08:58:03.196Z,1.37
2023-01-21T09:00:07.352Z,1.40
2023-01-21T09:02:12.212Z,1.40
2023-01-21T09:04:15.355Z,1.45
2023-01-21T09:06:19.695Z,1.48
2023-01-21T09:08:22.682Z,1.51
2023-01-21T09:10:43.159Z,1.53
2023-01-21T09:12:46.133Z,1.58
2023-01-21T09:14:49.335Z,1.62
2023-01-21T09:16:52.545Z,1.66
2023-01-21T09:18:56.780Z,1.69
2023-01-21T09:21:03.126Z,1.73
2023-01-21T09:23:24.154Z,1.78
2023-01-21T09:25:27.887Z,1.79
2023-01-21T09:27:31.060Z,1.81
2023-01-21T09:29:34.320Z,1.79
2023-01-21T09:31:37.661Z,1.79
2023-01-21T09:33:43.417Z,1.84
2023-01-21T09:35:46.346Z,1.85
2023-01-21T09:37:49.501Z,1.89
2023-01-21T09:39:53.904Z,1.91
2023-01-21T09:41:58.165Z,1.93
2023-01-21T09:44:06.477Z,1.99
2023-01-21T09:46:16.146Z,2.00
2023-01-21T09:48:28.133Z,1.99
2023-01-21T09:50:32.428Z,2.02
2023-01-21T09:52:38.954Z,2.03
2023-01-21T09:54:42.085Z,2.06
2023-01-21T09:57:02.354Z,2.09
2023-01-21T09:59:07.668Z,2.13
2023-01-21T10:01:13.988Z,2.14
2023-01-21T10:03:26.242Z,2.16
2023-01-21T10:05:46.960Z,2.20
2023-01-21T10:07:55.620Z,2.26
2023-01-21T10:10:08.245Z,2.23
2023-01-21T10:12:36.567Z,2.22
2023-01-21T10:15:11.386Z,2.26
2023-01-21T10:17:18.003Z,2.25
2023-01-21T10:19:24.578Z,2.27
2023-01-21T10:21:32.203Z,2.28
2023-01-21T10:23:38.862Z,2.27
2023-01-21T10:25:42.206Z,2.29
2023-01-21T10:27:46.911Z,2.27
2023-01-21T10:29:53.020Z,2.29
2023-01-21T10:31:59.522Z,2.33
2023-01-21T10:34:02.988Z,2.38
2023-01-21T10:36:43.910Z,2.45
2023-01-21T10:38:53.637Z,2.47
2023-01-21T10:41:00.618Z,2.13
2023-01-21T10:43:08.079Z,1.91
2023-01-21T10:45:25.825Z,1.78
2023-01-21T10:47:35.431Z,1.75
2023-01-21T10:49:54.027Z,1.44
2023-01-21T10:52:01.978Z,1.49
2023-01-21T10:54:10.541Z,1.50
2023-01-21T10:56:20.145Z,1.35
2023-01-21T10:58:29.291Z,1.29
2023-01-21T11:00:34.894Z,1.27
2023-01-21T11:02:38.176Z,1.18
2023-01-21T11:04:42.136Z,1.05
2023-01-21T11:06:45.592Z,1.08
2023-01-21T11:08:51.312Z,1.14
2023-01-21T11:10:55.233Z,1.17
2023-01-21T11:12:58.575Z,1.26
2023-01-21T11:15:09.023Z,1.28
2023-01-21T11:17:12.113Z,1.36
2023-01-21T11:19:16.847Z,1.44
2023-01-21T11:21:23.261Z,1.43
2023-01-21T11:23:29.382Z,1.54
2023-01-21T11:25:37.234Z,1.60
2023-01-21T11:27:40.311Z,1.60
2023-01-21T11:29:43.739Z,1.51
2023-01-21T11:31:49.611Z,1.25
2023-01-21T11:33:52.898Z,1.17
2023-01-21T11:35:58.413Z,1.18
2023-01-21T11:38:01.533Z,1.28
2023-01-21T11:40:06.695Z,1.29
2023-01-21T11:42:15.676Z,1.33
2023-01-21T11:44:20.162Z,1.31
2023-01-21T11:46:28.505Z,1.31
2023-01-21T11:48:35.241Z,1.27
2023-01-21T11:50:38.713Z,1.34
2023-01-21T11:52:41.806Z,1.39
2023-01-21T11:54:45.207Z,1.23
2023-01-21T11:56:56.811Z,1.24
2023-01-21T11:58:59.899Z,1.28
2023-01-21T12:01:05.221Z,1.29
2023-01-21T12:03:08.311Z,1.31
2023-01-21T12:05:16.856Z,1.34
2023-01-21T12:07:21.378Z,1.24
2023-01-21T12:09:24.715Z,1.22
2023-01-21T12:11:29.104Z,1.37
2023-01-21T12:13:37.003Z,1.51
2023-01-21T12:16:03.777Z,1.40
2023-01-21T12:18:16.090Z,1.40
2023-01-21T12:20:26.581Z,1.42
2023-01-21T12:22:45.344Z,1.39
2023-01-21T12:25:01.604Z,1.16
2023-01-21T12:27:11.784Z,1.20
2023-01-21T12:29:40.735Z,1.01
2023-01-21T12:31:46.321Z,1.10
2023-01-21T12:33:52.396Z,1.11
2023-01-21T12:35:58.908Z,1.21
2023-01-21T12:38:04.491Z,1.31
2023-01-21T12:40:16.550Z,1.39
2023-01-21T12:42:22.916Z,1.43
2023-01-21T12:44:29.708Z,1.32
2023-01-21T12:46:35.135Z,1.36
2023-01-21T12:48:41.312Z,1.24
2023-01-21T12:50:48.171Z,1.07
2023-01-21T12:53:01.719Z,1.16
2023-01-21T12:55:09.089Z,1.15
2023-01-21T12:57:17.986Z,1.15
2023-01-21T12:59:24.151Z,1.10
2023-01-21T13:01:44.251Z,1.07
2023-01-21T13:03:53.664Z,1.09
2023-01-21T13:06:00.926Z,1.17
2023-01-21T13:08:21.960Z,1.16
2023-01-21T13:10:27.543Z,1.13
2023-01-21T13:12:32.449Z,1.19
2023-01-21T13:14:38.703Z,1.13
2023-01-21T13:16:44.485Z,1.11
2023-01-21T13:18:51.845Z,1.21
2023-01-21T13:20:56.291Z,1.18
2023-01-21T13:23:06.787Z,1.06
2023-01-21T13:25:21.962Z,0.95
2023-01-21T13:27:29.502Z,1.01
2023-01-21T13:29:38.898Z,1.15
2023-01-21T13:31:47.457Z,1.24
2023-01-21T13:33:55.867Z,1.28
2023-01-21T13:36:07.492Z,1.08
2023-01-21T13:38:21.337Z,1.06
2023-01-21T13:40:39.398Z,0.94
2023-01-21T13:42:47.685Z,1.02
2023-01-21T13:45:09.029Z,0.93
2023-01-21T13:47:21.735Z,0.92
2023-01-21T13:50:02.790Z,0.87
2023-01-21T13:52:12.208Z,0.79
2023-01-21T13:54:50.246Z,0.65
2023-01-21T13:57:04.430Z,0.56
2023-01-21T13:59:12.112Z,0.50
2023-01-21T14:01:17.210Z,0.50
2023-01-21T14:03:27.487Z,0.53
2023-01-21T14:05:33.845Z,0.53
2023-01-21T14:07:40.391Z,0.48
2023-01-21T14:09:47.804Z,0.53
2023-01-21T14:11:54.261Z,0.59
2023-01-21T14:14:21.829Z,0.62
2023-01-21T14:16:46.832Z,0.66
2023-01-21T14:19:03.682Z,0.58
2023-01-21T14:21:16.048Z,0.54
2023-01-21T14:23:35.402Z,0.50
2023-01-21T14:25:51.099Z,0.56
2023-01-21T14:28:01.649Z,0.43
2023-01-21T14:30:09.988Z,0.41
2023-01-21T14:32:16.913Z,0.36
2023-01-21T14:34:22.984Z,0.39
2023-01-21T14:36:31.078Z,0.40
2023-01-21T14:38:38.191Z,0.46
2023-01-21T14:40:49.836Z,0.58
2023-01-21T14:42:54.767Z,0.64
2023-01-21T14:45:04.955Z,0.65
2023-01-21T14:47:16.322Z,0.70
2023-01-21T14:49:39.900Z,0.69
2023-01-21T14:51:45.668Z,0.63
2023-01-21T14:53:50.084Z,0.63
2023-01-21T14:56:16.648Z,0.63
2023-01-21T14:58:23.780Z,0.68
2023-01-21T15:00:30.838Z,0.78
2023-01-21T15:02:35.841Z,0.82
2023-01-21T15:04:40.089Z,0.86
2023-01-21T15:06:43.624Z,0.87
2023-01-21T15:08:49.675Z,0.85
2023-01-21T15:10:56.333Z,0.86
2023-01-21T15:13:02.124Z,0.93
2023-01-21T15:15:30.963Z,0.99
2023-01-21T15:17:48.420Z,1.03
2023-01-21T15:19:58.152Z,0.95
2023-01-21T15:22:15.846Z,0.99
2023-01-21T15:24:25.854Z,1.03
2023-01-21T15:26:33.267Z,1.05
2023-01-21T15:28:42.474Z,1.08
2023-01-21T15:30:59.094Z,1.16
2023-01-21T15:33:02.316Z,1.20
2023-01-21T15:35:12.135Z,1.16
2023-01-21T15:37:18.441Z,1.15
2023-01-21T15:39:25.826Z,1.12
2023-01-21T15:41:37.589Z,1.14
2023-01-21T15:43:45.179Z,1.10
2023-01-21T15:45:53.188Z,1.01
2023-01-21T15:48:06.852Z,1.02
2023-01-21T15:50:18.556Z,1.03
2023-01-21T15:52:31.401Z,0.99
2023-01-21T15:54:38.966Z,0.93
2023-01-21T15:56:52.011Z,0.85
2023-01-21T15:59:03.413Z,0.82
2023-01-21T16:01:13.482Z,0.81
2023-01-21T16:03:23.278Z,0.83
2023-01-21T16:05:32.489Z,0.78
2023-01-21T16:07:44.370Z,0.79
2023-01-21T16:09:57.930Z,0.67
2023-01-21T16:12:09.732Z,0.64
2023-01-21T16:14:24.167Z,0.72
2023-01-21T16:16:39.197Z,0.79
2023-01-21T16:18:51.560Z,0.90
2023-01-21T16:20:57.673Z,0.94
2023-01-21T16:23:02.954Z,0.89
2023-01-21T16:25:08.745Z,0.97
2023-01-21T16:27:19.410Z,1.01
2023-01-21T16:29:22.559Z,1.09
2023-01-21T16:31:25.701Z,1.14
2023-01-21T16:33:30.203Z,1.02
2023-01-21T16:35:42.945Z,1.02
2023-01-21T16:37:54.566Z,0.98
2023-01-21T16:40:21.497Z,0.99
2023-01-21T16:42:27.549Z,1.05
2023-01-21T16:44:30.781Z,1.14
2023-01-21T16:46:37.366Z,1.13
2023-01-21T16:48:42.059Z,1.02
2023-01-21T16:50:48.411Z,1.08
2023-01-21T16:52:52.272Z,1.08
2023-01-21T16:54:56.200Z,1.15
2023-01-21T16:57:00.529Z,1.20
2023-01-21T16:59:03.635Z,1.21
2023-01-21T17:01:11.238Z,1.22
2023-01-21T17:03:14.248Z,1.23
2023-01-21T17:05:19.490Z,1.18
2023-01-21T17:07:24.543Z,1.29
2023-01-21T17:09:30.988Z,1.23
2023-01-21T17:11:36.514Z,1.24
2023-01-21T17:13:41.345Z,1.11
2023-01-21T17:15:45.834Z,1.14
2023-01-21T17:17:48.889Z,1.19
2023-01-21T17:19:52.273Z,1.22
2023-01-21T17:21:58.330Z,1.27
2023-01-21T17:24:04.501Z,1.30
2023-01-21T17:26:10.719Z,1.26
2023-01-21T17:28:18.143Z,1.34
2023-01-21T17:30:30.348Z,1.31
2023-01-21T17:32:34.145Z,1.29
2023-01-21T17:34:39.849Z,1.33
2023-01-21T17:36:44.252Z,1.35
2023-01-21T17:38:48.940Z,1.26
2023-01-21T17:41:01.307Z,1.26
2023-01-21T17:43:15.384Z,1.18
2023-01-21T17:45:21.002Z,1.23
2023-01-21T17:47:26.167Z,1.22
2023-01-21T17:49:29.218Z,1.20
2023-01-21T17:51:32.948Z,1.19
2023-01-21T17:53:41.246Z,1.19
2023-01-21T17:55:56.853Z,1.24
2023-01-21T17:58:04.509Z,1.26
2023-01-21T18:00:29.403Z,1.25
2023-01-21T18:02:32.476Z,1.21
2023-01-21T18:04:35.604Z,1.16
2023-01-21T18:06:38.672Z,1.16
2023-01-21T18:08:41.730Z,1.16
2023-01-21T18:10:46.479Z,1.18
2023-01-21T18:12:49.700Z,1.23
2023-01-21T18:14:52.707Z,1.29
2023-01-21T18:16:55.761Z,1.33
2023-01-21T18:18:59.281Z,1.38
2023-01-21T18:21:03.041Z,1.39
2023-01-21T18:23:07.013Z,1.40
2023-01-21T18:25:12.206Z,1.42
2023-01-21T18:27:17.234Z,1.45
2023-01-21T18:29:21.815Z,1.41
2023-01-21T18:31:25.175Z,1.38
2023-01-21T18:33:28.529Z,1.37
2023-01-21T18:35:31.602Z,1.39
2023-01-21T18:37:34.794Z,1.43
2023-01-21T18:39:38.188Z,1.50
2023-01-21T18:41:41.335Z,1.55
2023-01-21T18:43:45.781Z,1.59
2023-01-21T18:45:48.766Z,1.63
2023-01-21T18:47:52.357Z,1.64
2023-01-21T18:49:55.367Z,1.68
2023-01-21T18:51:58.346Z,1.73
2023-01-21T18:54:01.383Z,1.75
2023-01-21T18:56:06.272Z,1.79
2023-01-21T18:58:13.337Z,1.83
2023-01-21T19:00:20.905Z,1.85
2023-01-21T19:02:24.170Z,1.87
2023-01-21T19:04:27.344Z,1.90
2023-01-21T19:06:30.534Z,1.95
2023-01-21T19:08:33.649Z,1.96
2023-01-21T19:10:36.702Z,1.97
2023-01-21T19:12:39.935Z,1.94
2023-01-21T19:14:43.198Z,1.98
2023-01-21T19:16:48.122Z,2.02
2023-01-21T19:18:51.376Z,2.05
2023-01-21T19:20:54.976Z,2.04
2023-01-21T19:22:58.139Z,2.04
2023-01-21T19:25:01.178Z,2.06
2023-01-21T19:27:04.376Z,2.02
2023-01-21T19:29:11.609Z,2.05
2023-01-21T19:31:14.853Z,2.00
2023-01-21T19:33:19.453Z,1.91
2023-01-21T19:35:29.850Z,1.92
2023-01-21T19:37:33.000Z,1.97
2023-01-21T19:39:36.095Z,1.95
2023-01-21T19:41:39.121Z,1.96
2023-01-21T19:43:42.311Z,1.99
2023-01-21T19:45:46.045Z,2.03
2023-01-21T19:47:50.734Z,2.04
2023-01-21T19:49:55.085Z,2.03
2023-01-21T19:51:58.139Z,1.97
2023-01-21T19:54:01.251Z,1.97
2023-01-21T19:56:06.275Z,1.98
2023-01-21T19:58:17.837Z,1.98
2023-01-21T20:00:23.397Z,2.01
2023-01-21T20:02:26.508Z,2.05
2023-01-21T20:04:29.568Z,2.03
2023-01-21T20:06:39.278Z,2.04
2023-01-21T20:08:42.575Z,2.04
2023-01-21T20:10:45.639Z,2.03
2023-01-21T20:12:49.172Z,2.04
2023-01-21T20:14:52.355Z,1.99
2023-01-21T20:16:56.517Z,2.03
2023-01-21T20:19:02.239Z,2.03
2023-01-21T20:21:05.899Z,2.07
2023-01-21T20:23:14.687Z,2.08
2023-01-21T20:25:20.040Z,2.12
2023-01-21T20:27:23.354Z,2.14
2023-01-21T20:29:27.501Z,2.15
2023-01-21T20:31:31.084Z,2.16
2023-01-21T20:33:34.398Z,2.17
2023-01-21T20:35:37.579Z,2.17
2023-01-21T20:37:40.854Z,2.22
2023-01-21T20:39:45.254Z,2.27
2023-01-21T20:41:48.439Z,2.25
2023-01-21T20:43:51.454Z,2.19
2023-01-21T20:45:54.934Z,2.17
2023-01-21T20:47:59.647Z,2.19
2023-01-21T20:50:02.869Z,2.20
2023-01-21T20:52:06.002Z,2.19
2023-01-21T20:54:09.107Z,2.20
2023-01-21T20:56:19.498Z,2.20
2023-01-21T20:58:23.138Z,2.18
2023-01-21T21:00:29.290Z,2.16
2023-01-21T21:02:32.447Z,2.14
2023-01-21T21:04:35.723Z,2.12
2023-01-21T21:06:38.978Z,2.09
2023-01-21T21:08:42.239Z,2.08
2023-01-21T21:10:45.921Z,2.08
2023-01-21T21:12:51.288Z,2.05
2023-01-21T21:14:54.308Z,2.06
2023-01-21T21:16:58.166Z,2.03
2023-01-21T21:19:02.111Z,2.03
2023-01-21T21:21:05.609Z,2.03
2023-01-21T21:23:09.221Z,2.01
2023-01-21T21:25:16.139Z,2.01
2023-01-21T21:27:19.410Z,2.00
2023-01-21T21:29:23.926Z,1.99
2023-01-21T21:31:30.156Z,1.98
2023-01-21T21:33:33.357Z,1.96
2023-01-21T21:35:37.422Z,1.97
2023-01-21T21:37:40.524Z,1.96
2023-01-21T21:39:43.529Z,1.96
2023-01-21T21:42:04.988Z,1.98
2023-01-21T21:44:09.158Z,1.98
2023-01-21T21:46:31.459Z,1.96
2023-01-21T21:48:41.932Z,1.95
2023-01-21T21:50:45.061Z,1.96
2023-01-21T21:52:48.347Z,1.96
2023-01-21T21:54:51.762Z,1.98
2023-01-21T21:56:54.828Z,1.97
2023-01-21T21:58:57.989Z,1.93
2023-01-21T22:01:08.518Z,1.92
2023-01-21T22:03:14.081Z,1.94
2023-01-21T22:05:17.661Z,1.95
2023-01-21T22:07:21.072Z,1.91
2023-01-21T22:09:24.344Z,1.91
2023-01-21T22:11:28.726Z,1.92
2023-01-21T22:13:32.738Z,1.90
2023-01-21T22:15:36.187Z,1.91
2023-01-21T22:17:39.350Z,1.92
2023-01-21T22:19:43.692Z,1.92
2023-01-21T22:21:46.852Z,1.89
2023-01-21T22:23:50.230Z,1.90
2023-01-21T22:25:53.720Z,1.88
2023-01-21T22:27:56.916Z,1.88
2023-01-21T22:30:01.445Z,1.89
2023-01-21T22:32:05.086Z,1.89
2023-01-21T22:34:08.230Z,1.90
2023-01-21T22:36:15.166Z,1.90
2023-01-21T22:38:19.457Z,1.91
2023-01-21T22:40:22.526Z,1.92
2023-01-21T22:42:25.726Z,1.92
2023-01-21T22:44:28.818Z,1.92
2023-01-21T22:46:33.732Z,1.93
2023-01-21T22:48:36.724Z,1.91
2023-01-21T22:50:41.097Z,1.92
2023-01-21T22:52:45.759Z,1.90
2023-01-21T22:54:50.161Z,1.92
2023-01-21T22:56:53.445Z,1.93
2023-01-21T22:58:56.593Z,1.92
2023-01-21T23:01:00.584Z,1.93
2023-01-21T23:03:03.968Z,1.91
2023-01-21T23:05:07.780Z,1.90
2023-01-21T23:07:11.226Z,1.91
2023-01-21T23:09:16.658Z,1.93
2023-01-21T23:11:21.207Z,1.92
2023-01-21T23:13:26.477Z,1.94
2023-01-21T23:15:29.984Z,1.93
2023-01-21T23:17:33.369Z,1.94
2023-01-21T23:19:36.515Z,1.92
2023-01-21T23:21:40.365Z,1.93
2023-01-21T23:23:43.507Z,1.95
2023-01-21T23:25:48.810Z,1.96
2023-01-21T23:27:51.940Z,1.96
2023-01-21T23:29:55.021Z,1.97
2023-01-21T23:31:58.918Z,1.98
2023-01-21T23:34:03.308Z,1.96
2023-01-21T23:36:09.383Z,1.97
2023-01-21T23:38:12.482Z,1.97
2023-01-21T23:40:16.132Z,1.98
2023-01-21T23:42:22.438Z,1.98
2023-01-21T23:44:26.256Z,1.97
2023-01-21T23:46:29.419Z,1.97
2023-01-21T23:48:32.580Z,1.98
2023-01-21T23:50:35.704Z,2.04
2023-01-21T23:52:39.648Z,2.07
2023-01-21T23:54:43.761Z,2.05
2023-01-21T23:56:46.833Z,2.01
2023-01-21T23:58:51.712Z,1.97
